SWA200 KSAN-KLAS
Flight info
| Callsign | SWA200 |
|---|---|
| Flight time | 0h 49m |
| Altitude | 29000 |
| Route | PADRZ2 CHKNN SEBBY YELAH MISEN RNDRZ4 |
| Aircraft | B738/M-SDE2E3FGHIRWXY/LB1 |
Departure
| Time | 2026-05-03 23:55 |
|---|---|
| Airport | San Diego International Airport (KSAN) |
Arrival
| Time | 2026-05-04 00:45 |
|---|---|
| Airport | Harry Reid International Airport (KLAS) |
| Time | Latitude | Longitude | Altitude | Speed | Heading |
|---|---|---|---|---|---|
| 2026-05-03 23:14 | 32.73158 | -117.19557 | 19 ft | 0 kts | 259° |
| 2026-05-03 23:40 | 32.73165 | -117.19530 | 20 ft | 4 kts | 241° |
| 2026-05-03 23:40 | 32.73181 | -117.19507 | 21 ft | 2 kts | 211° |
| 2026-05-03 23:40 | 32.73181 | -117.19506 | 21 ft | 0 kts | 210° |
| 2026-05-03 23:43 | 32.73181 | -117.19507 | 21 ft | 0 kts | 211° |
| 2026-05-03 23:43 | 32.73180 | -117.19507 | 21 ft | 1 kts | 211° |
| 2026-05-03 23:43 | 32.73179 | -117.19509 | 22 ft | 1 kts | 218° |
| 2026-05-03 23:44 | 32.73191 | -117.19532 | 19 ft | 6 kts | 332° |
| 2026-05-03 23:44 | 32.73228 | -117.19511 | 20 ft | 7 kts | 52° |
| 2026-05-03 23:44 | 32.73313 | -117.19431 | 23 ft | 21 kts | 36° |
| 2026-05-03 23:44 | 32.73321 | -117.19240 | 20 ft | 31 kts | 106° |
| 2026-05-03 23:45 | 32.73267 | -117.19012 | 21 ft | 24 kts | 105° |
| 2026-05-03 23:45 | 32.73222 | -117.18827 | 24 ft | 25 kts | 108° |
| 2026-05-03 23:45 | 32.73170 | -117.18615 | 18 ft | 27 kts | 106° |
| 2026-05-03 23:45 | 32.73121 | -117.18413 | 16 ft | 24 kts | 105° |
| 2026-05-03 23:46 | 32.73081 | -117.18248 | 17 ft | 13 kts | 105° |
| 2026-05-03 23:46 | 32.73052 | -117.18133 | 13 ft | 24 kts | 106° |
| 2026-05-03 23:46 | 32.72998 | -117.17912 | 13 ft | 25 kts | 106° |
| 2026-05-03 23:46 | 32.72969 | -117.17791 | 12 ft | 13 kts | 105° |
| 2026-05-03 23:47 | 32.72955 | -117.17730 | 13 ft | 0 kts | 104° |
| 2026-05-03 23:48 | 32.72953 | -117.17693 | 12 ft | 8 kts | 87° |
| 2026-05-03 23:48 | 32.72953 | -117.17687 | 12 ft | 0 kts | 83° |
| 2026-05-03 23:49 | 32.72954 | -117.17681 | 12 ft | 1 kts | 83° |
| 2026-05-03 23:52 | 32.72968 | -117.17620 | 14 ft | 12 kts | 70° |
| 2026-05-03 23:52 | 32.73028 | -117.17619 | 14 ft | 12 kts | 294° |
| 2026-05-03 23:52 | 32.73033 | -117.17636 | 14 ft | 0 kts | 289° |
| 2026-05-03 23:53 | 32.73033 | -117.17637 | 14 ft | 0 kts | 289° |
| 2026-05-03 23:53 | 32.73036 | -117.17646 | 14 ft | 1 kts | 286° |
| 2026-05-03 23:54 | 32.73038 | -117.17655 | 14 ft | 3 kts | 286° |
| 2026-05-03 23:54 | 32.73039 | -117.17661 | 14 ft | 0 kts | 286° |
| 2026-05-03 23:54 | 32.73046 | -117.17689 | 15 ft | 22 kts | 286° |
| 2026-05-03 23:54 | 32.73114 | -117.17972 | 12 ft | 85 kts | 286° |
| 2026-05-03 23:55 | 32.73357 | -117.18978 | 27 ft | 164 kts | 287° |
| 2026-05-03 23:55 | 32.73699 | -117.20442 | 525 ft | 195 kts | 285° |
| 2026-05-03 23:55 | 32.74085 | -117.22084 | 1312 ft | 209 kts | 286° |
| 2026-05-03 23:55 | 32.74863 | -117.23666 | 1866 ft | 241 kts | 310° |
| 2026-05-03 23:56 | 32.75993 | -117.25209 | 2682 ft | 252 kts | 306° |
| 2026-05-03 23:56 | 32.77048 | -117.26848 | 3873 ft | 254 kts | 303° |
| 2026-05-03 23:56 | 32.78045 | -117.28638 | 4982 ft | 258 kts | 300° |
| 2026-05-03 23:56 | 32.79043 | -117.30457 | 5786 ft | 268 kts | 301° |
| 2026-05-03 23:57 | 32.80153 | -117.32307 | 6546 ft | 279 kts | 303° |
| 2026-05-03 23:57 | 32.81336 | -117.34117 | 7521 ft | 282 kts | 304° |
| 2026-05-03 23:57 | 32.82553 | -117.35960 | 8592 ft | 283 kts | 303° |
| 2026-05-03 23:57 | 32.83779 | -117.37840 | 9730 ft | 289 kts | 303° |
| 2026-05-03 23:58 | 32.84961 | -117.39792 | 10789 ft | 297 kts | 301° |
| 2026-05-03 23:58 | 32.86376 | -117.41770 | 11124 ft | 330 kts | 307° |
| 2026-05-03 23:58 | 32.87765 | -117.44050 | 11427 ft | 353 kts | 298° |
| 2026-05-03 23:58 | 32.89296 | -117.46474 | 11947 ft | 376 kts | 309° |
| 2026-05-03 23:59 | 32.91023 | -117.48745 | 12794 ft | 373 kts | 304° |
| 2026-05-03 23:59 | 32.92589 | -117.51222 | 13555 ft | 375 kts | 302° |
| 2026-05-03 23:59 | 32.94141 | -117.53751 | 14203 ft | 379 kts | 302° |
| 2026-05-03 23:59 | 32.95715 | -117.56273 | 14928 ft | 379 kts | 302° |
| 2026-05-04 00:00 | 32.97305 | -117.58782 | 15682 ft | 379 kts | 301° |
| 2026-05-04 00:00 | 32.98898 | -117.61278 | 16397 ft | 379 kts | 301° |
| 2026-05-04 00:00 | 33.00499 | -117.63779 | 17077 ft | 380 kts | 301° |
| 2026-05-04 00:00 | 33.02084 | -117.66255 | 17753 ft | 381 kts | 300° |
| 2026-05-04 00:01 | 33.03696 | -117.68773 | 18432 ft | 381 kts | 300° |
| 2026-05-04 00:01 | 33.05309 | -117.71297 | 18944 ft | 383 kts | 300° |
| 2026-05-04 00:01 | 33.07015 | -117.73766 | 19415 ft | 393 kts | 307° |
| 2026-05-04 00:01 | 33.09096 | -117.75942 | 19908 ft | 400 kts | 312° |
| 2026-05-04 00:02 | 33.11270 | -117.78050 | 20442 ft | 402 kts | 312° |
| 2026-05-04 00:02 | 33.13440 | -117.80170 | 20925 ft | 404 kts | 311° |
| 2026-05-04 00:02 | 33.15574 | -117.82304 | 21408 ft | 406 kts | 311° |
| 2026-05-04 00:02 | 33.17731 | -117.84494 | 21887 ft | 408 kts | 311° |
| 2026-05-04 00:03 | 33.19892 | -117.86697 | 22383 ft | 410 kts | 311° |
| 2026-05-04 00:03 | 33.22101 | -117.88891 | 22862 ft | 414 kts | 311° |
| 2026-05-04 00:03 | 33.24341 | -117.91073 | 23333 ft | 416 kts | 312° |
| 2026-05-04 00:03 | 33.26601 | -117.93262 | 23749 ft | 418 kts | 312° |
| 2026-05-04 00:04 | 33.28866 | -117.95457 | 24127 ft | 419 kts | 311° |
| 2026-05-04 00:04 | 33.31108 | -117.97636 | 24525 ft | 420 kts | 311° |
| 2026-05-04 00:04 | 33.33379 | -117.99850 | 24900 ft | 421 kts | 311° |
| 2026-05-04 00:04 | 33.35661 | -118.02080 | 25274 ft | 422 kts | 311° |
| 2026-05-04 00:05 | 33.37943 | -118.04313 | 25635 ft | 424 kts | 311° |
| 2026-05-04 00:05 | 33.40205 | -118.06530 | 26019 ft | 425 kts | 311° |
| 2026-05-04 00:05 | 33.42494 | -118.08775 | 26342 ft | 427 kts | 310° |
| 2026-05-04 00:05 | 33.44795 | -118.11034 | 26685 ft | 428 kts | 310° |
| 2026-05-04 00:06 | 33.47108 | -118.13304 | 27030 ft | 429 kts | 310° |
| 2026-05-04 00:06 | 33.49409 | -118.15564 | 27464 ft | 427 kts | 310° |
| 2026-05-04 00:06 | 33.51706 | -118.17819 | 28019 ft | 423 kts | 310° |
| 2026-05-04 00:06 | 33.53971 | -118.20044 | 28585 ft | 419 kts | 310° |
| 2026-05-04 00:07 | 33.56206 | -118.22244 | 28991 ft | 419 kts | 309° |
| 2026-05-04 00:07 | 33.58626 | -118.24327 | 29006 ft | 440 kts | 321° |
| 2026-05-04 00:07 | 33.64156 | -118.27226 | 29000 ft | 419 kts | 323° |
| 2026-05-04 00:08 | 33.69390 | -118.30041 | 29007 ft | 415 kts | 327° |
| 2026-05-04 00:08 | 33.72310 | -118.30817 | 29022 ft | 441 kts | 342° |
| 2026-05-04 00:08 | 33.75438 | -118.30820 | 29012 ft | 461 kts | 354° |
| 2026-05-04 00:09 | 33.78660 | -118.30071 | 29020 ft | 480 kts | 6° |
| 2026-05-04 00:09 | 33.81748 | -118.28475 | 29022 ft | 501 kts | 21° |
| 2026-05-04 00:09 | 33.84620 | -118.25974 | 29024 ft | 517 kts | 37° |
| 2026-05-04 00:09 | 33.86939 | -118.22627 | 28991 ft | 528 kts | 53° |
| 2026-05-04 00:10 | 33.90717 | -118.15020 | 28982 ft | 532 kts | 57° |
| 2026-05-04 00:10 | 33.94358 | -118.07318 | 28963 ft | 532 kts | 56° |
| 2026-05-04 00:11 | 33.98005 | -117.99854 | 28968 ft | 529 kts | 56° |
| 2026-05-04 00:11 | 34.01782 | -117.92249 | 28980 ft | 527 kts | 55° |
| 2026-05-04 00:12 | 34.05540 | -117.84659 | 28984 ft | 526 kts | 56° |
| 2026-05-04 00:12 | 34.09327 | -117.77104 | 28988 ft | 523 kts | 51° |
| 2026-05-04 00:13 | 34.13784 | -117.70323 | 28976 ft | 518 kts | 44° |
| 2026-05-04 00:13 | 34.16922 | -117.65881 | 28973 ft | 519 kts | 44° |
| 2026-05-04 00:14 | 34.23429 | -117.56567 | 28961 ft | 521 kts | 45° |
| 2026-05-04 00:14 | 34.28017 | -117.49840 | 28923 ft | 518 kts | 45° |
| 2026-05-04 00:15 | 34.32587 | -117.43112 | 28924 ft | 517 kts | 46° |
| 2026-05-04 00:15 | 34.37161 | -117.36372 | 28925 ft | 520 kts | 46° |
| 2026-05-04 00:16 | 34.41720 | -117.29638 | 28878 ft | 514 kts | 46° |
| 2026-05-04 00:16 | 34.46224 | -117.22974 | 28907 ft | 512 kts | 46° |
| 2026-05-04 00:17 | 34.50744 | -117.16279 | 28857 ft | 513 kts | 46° |
| 2026-05-04 00:17 | 34.55263 | -117.09573 | 28853 ft | 514 kts | 46° |
| 2026-05-04 00:18 | 34.59777 | -117.02859 | 28823 ft | 515 kts | 46° |
| 2026-05-04 00:18 | 34.64318 | -116.96091 | 28806 ft | 515 kts | 46° |
| 2026-05-04 00:19 | 34.68846 | -116.89328 | 28788 ft | 516 kts | 46° |
| 2026-05-04 00:19 | 34.73369 | -116.82561 | 28795 ft | 515 kts | 46° |
| 2026-05-04 00:20 | 34.77882 | -116.75795 | 28784 ft | 514 kts | 46° |
| 2026-05-04 00:20 | 34.82364 | -116.69064 | 28794 ft | 513 kts | 46° |
| 2026-05-04 00:21 | 34.86231 | -116.63603 | 28780 ft | 507 kts | 38° |
| 2026-05-04 00:21 | 34.91651 | -116.58254 | 28778 ft | 501 kts | 31° |
| 2026-05-04 00:22 | 34.95365 | -116.54781 | 28332 ft | 505 kts | 31° |
| 2026-05-04 00:22 | 34.98108 | -116.52178 | 27670 ft | 505 kts | 32° |
| 2026-05-04 00:22 | 35.00849 | -116.49531 | 27206 ft | 500 kts | 32° |
| 2026-05-04 00:22 | 35.02658 | -116.47772 | 26846 ft | 498 kts | 32° |
| 2026-05-04 00:23 | 35.05354 | -116.45141 | 26330 ft | 495 kts | 32° |
| 2026-05-04 00:23 | 35.08041 | -116.42522 | 25817 ft | 491 kts | 32° |
| 2026-05-04 00:23 | 35.10683 | -116.39885 | 25320 ft | 491 kts | 36° |
| 2026-05-04 00:23 | 35.13113 | -116.36947 | 24805 ft | 492 kts | 43° |
| 2026-05-04 00:24 | 35.15427 | -116.33865 | 24284 ft | 491 kts | 44° |
| 2026-05-04 00:24 | 35.17717 | -116.30774 | 23795 ft | 489 kts | 44° |
| 2026-05-04 00:24 | 35.19994 | -116.27761 | 23292 ft | 488 kts | 44° |
| 2026-05-04 00:24 | 35.22351 | -116.24700 | 22651 ft | 485 kts | 44° |
| 2026-05-04 00:25 | 35.24607 | -116.21733 | 22191 ft | 479 kts | 46° |
| 2026-05-04 00:25 | 35.26816 | -116.18697 | 21694 ft | 474 kts | 46° |
| 2026-05-04 00:25 | 35.28979 | -116.15689 | 21194 ft | 469 kts | 47° |
| 2026-05-04 00:25 | 35.31136 | -116.12708 | 20700 ft | 464 kts | 47° |
| 2026-05-04 00:26 | 35.33268 | -116.09777 | 20243 ft | 457 kts | 47° |
| 2026-05-04 00:26 | 35.35372 | -116.06890 | 19796 ft | 451 kts | 47° |
| 2026-05-04 00:26 | 35.37449 | -116.04039 | 19318 ft | 446 kts | 48° |
| 2026-05-04 00:26 | 35.39502 | -116.01220 | 18845 ft | 441 kts | 48° |
| 2026-05-04 00:27 | 35.41533 | -115.98425 | 18364 ft | 436 kts | 49° |
| 2026-05-04 00:27 | 35.43514 | -115.95696 | 17870 ft | 431 kts | 49° |
| 2026-05-04 00:27 | 35.45491 | -115.92971 | 17310 ft | 425 kts | 50° |
| 2026-05-04 00:27 | 35.47436 | -115.90286 | 17005 ft | 415 kts | 50° |
| 2026-05-04 00:28 | 35.49322 | -115.87680 | 16874 ft | 401 kts | 50° |
| 2026-05-04 00:28 | 35.51154 | -115.85149 | 16681 ft | 390 kts | 50° |
| 2026-05-04 00:28 | 35.52929 | -115.82695 | 16521 ft | 379 kts | 50° |
| 2026-05-04 00:28 | 35.54653 | -115.80305 | 16365 ft | 369 kts | 50° |
| 2026-05-04 00:29 | 35.56336 | -115.77973 | 16209 ft | 360 kts | 50° |
| 2026-05-04 00:29 | 35.57957 | -115.75726 | 16068 ft | 351 kts | 50° |
| 2026-05-04 00:29 | 35.59564 | -115.73504 | 15906 ft | 343 kts | 50° |
| 2026-05-04 00:29 | 35.61155 | -115.71349 | 15744 ft | 337 kts | 50° |
| 2026-05-04 00:30 | 35.62725 | -115.69236 | 15587 ft | 334 kts | 49° |
| 2026-05-04 00:30 | 35.64294 | -115.67126 | 15412 ft | 332 kts | 50° |
| 2026-05-04 00:30 | 35.65849 | -115.65042 | 15273 ft | 332 kts | 50° |
| 2026-05-04 00:30 | 35.67418 | -115.62918 | 15063 ft | 338 kts | 50° |
| 2026-05-04 00:31 | 35.68955 | -115.60757 | 14949 ft | 341 kts | 50° |
| 2026-05-04 00:31 | 35.70562 | -115.58590 | 14774 ft | 343 kts | 49° |
| 2026-05-04 00:31 | 35.72178 | -115.56438 | 14581 ft | 341 kts | 47° |
| 2026-05-04 00:31 | 35.74018 | -115.54599 | 14400 ft | 340 kts | 31° |
| 2026-05-04 00:32 | 35.76075 | -115.53167 | 14247 ft | 337 kts | 29° |
| 2026-05-04 00:32 | 35.78132 | -115.51773 | 14073 ft | 336 kts | 29° |
| 2026-05-04 00:32 | 35.80182 | -115.50380 | 13904 ft | 335 kts | 29° |
| 2026-05-04 00:32 | 35.82213 | -115.48987 | 13716 ft | 334 kts | 30° |
| 2026-05-04 00:33 | 35.84211 | -115.47595 | 13559 ft | 333 kts | 31° |
| 2026-05-04 00:33 | 35.88232 | -115.44780 | 13196 ft | 333 kts | 31° |
| 2026-05-04 00:33 | 35.90246 | -115.43367 | 13021 ft | 332 kts | 31° |
| 2026-05-04 00:34 | 35.92271 | -115.41949 | 12674 ft | 338 kts | 31° |
| 2026-05-04 00:34 | 35.94335 | -115.40511 | 12276 ft | 342 kts | 30° |
| 2026-05-04 00:34 | 35.96383 | -115.39082 | 11897 ft | 343 kts | 31° |
| 2026-05-04 00:34 | 35.98468 | -115.37614 | 11502 ft | 343 kts | 33° |
| 2026-05-04 00:35 | 36.00230 | -115.35670 | 11089 ft | 339 kts | 58° |
| 2026-05-04 00:35 | 36.01203 | -115.33089 | 10831 ft | 326 kts | 78° |
| 2026-05-04 00:35 | 36.01441 | -115.30374 | 10609 ft | 313 kts | 96° |
| 2026-05-04 00:35 | 36.01324 | -115.27724 | 10399 ft | 306 kts | 98° |
| 2026-05-04 00:36 | 36.01171 | -115.25126 | 10229 ft | 303 kts | 99° |
| 2026-05-04 00:36 | 36.01019 | -115.22565 | 10003 ft | 300 kts | 98° |
| 2026-05-04 00:36 | 36.00875 | -115.20005 | 9800 ft | 297 kts | 98° |
| 2026-05-04 00:36 | 36.00743 | -115.17471 | 9567 ft | 294 kts | 98° |
| 2026-05-04 00:37 | 36.00618 | -115.15009 | 9363 ft | 289 kts | 99° |
| 2026-05-04 00:37 | 36.00493 | -115.12544 | 9146 ft | 285 kts | 99° |
| 2026-05-04 00:37 | 36.00370 | -115.10115 | 8926 ft | 281 kts | 99° |
| 2026-05-04 00:37 | 36.00248 | -115.07709 | 8670 ft | 279 kts | 98° |
| 2026-05-04 00:38 | 36.00125 | -115.05323 | 8415 ft | 277 kts | 99° |
| 2026-05-04 00:38 | 36.00004 | -115.02963 | 8185 ft | 274 kts | 99° |
| 2026-05-04 00:38 | 35.99903 | -115.00600 | 7856 ft | 275 kts | 99° |
| 2026-05-04 00:38 | 35.99882 | -114.98264 | 7501 ft | 275 kts | 95° |
| 2026-05-04 00:39 | 35.99875 | -114.95930 | 7242 ft | 272 kts | 95° |
| 2026-05-04 00:39 | 36.00027 | -114.93651 | 7166 ft | 266 kts | 79° |
| 2026-05-04 00:39 | 36.00963 | -114.91713 | 7105 ft | 261 kts | 49° |
| 2026-05-04 00:39 | 36.02422 | -114.90428 | 6862 ft | 260 kts | 20° |
| 2026-05-04 00:40 | 36.04161 | -114.90232 | 6732 ft | 245 kts | 347° |
| 2026-05-04 00:40 | 36.05682 | -114.90904 | 6644 ft | 226 kts | 326° |
| 2026-05-04 00:40 | 36.06829 | -114.92101 | 6357 ft | 210 kts | 289° |
| 2026-05-04 00:40 | 36.07106 | -114.93720 | 6193 ft | 182 kts | 264° |
| 2026-05-04 00:41 | 36.07198 | -114.95274 | 5854 ft | 180 kts | 267° |
| 2026-05-04 00:41 | 36.07326 | -114.96717 | 5751 ft | 162 kts | 262° |
| 2026-05-04 00:41 | 36.07374 | -114.98086 | 5404 ft | 159 kts | 261° |
| 2026-05-04 00:41 | 36.07384 | -114.99452 | 5026 ft | 159 kts | 260° |
| 2026-05-04 00:42 | 36.07387 | -115.00797 | 4709 ft | 153 kts | 259° |
| 2026-05-04 00:42 | 36.07385 | -115.02075 | 4338 ft | 144 kts | 261° |
| 2026-05-04 00:42 | 36.07373 | -115.03303 | 3817 ft | 144 kts | 262° |
| 2026-05-04 00:42 | 36.07377 | -115.04509 | 3424 ft | 140 kts | 262° |
| 2026-05-04 00:43 | 36.07375 | -115.05716 | 3221 ft | 143 kts | 261° |
| 2026-05-04 00:43 | 36.07372 | -115.06994 | 3044 ft | 154 kts | 261° |
| 2026-05-04 00:43 | 36.07373 | -115.08310 | 2800 ft | 148 kts | 261° |
| 2026-05-04 00:43 | 36.07357 | -115.09597 | 2612 ft | 153 kts | 260° |
| 2026-05-04 00:44 | 36.07390 | -115.10881 | 2464 ft | 148 kts | 269° |
| 2026-05-04 00:44 | 36.07367 | -115.12137 | 2252 ft | 136 kts | 263° |
| 2026-05-04 00:44 | 36.07370 | -115.13188 | 2126 ft | 114 kts | 267° |
| 2026-05-04 00:44 | 36.07364 | -115.14052 | 2124 ft | 83 kts | 271° |
| 2026-05-04 00:45 | 36.07410 | -115.14441 | 2127 ft | 19 kts | 294° |
| 2026-05-04 00:45 | 36.07437 | -115.14516 | 2129 ft | 0 kts | 297° |
| 2026-05-04 00:45 | 36.07438 | -115.14519 | 2129 ft | 0 kts | 297° |